sensor_id;sensor_type;location;lat;lon;timestamp;P1;durP1;ratioP1;P2;durP2;ratioP2
51943;SDS011;37969;53.132;6.370;2023-12-20T00:00:36;30.17;;;4.43;;
51943;SDS011;37969;53.132;6.370;2023-12-20T00:03:03;28.38;;;3.53;;
51943;SDS011;37969;53.132;6.370;2023-12-20T00:05:30;24.90;;;3.72;;
51943;SDS011;37969;53.132;6.370;2023-12-20T00:07:58;23.27;;;3.72;;
51943;SDS011;37969;53.132;6.370;2023-12-20T00:10:27;27.77;;;5.27;;
51943;SDS011;37969;53.132;6.370;2023-12-20T00:12:53;16.13;;;3.55;;
51943;SDS011;37969;53.132;6.370;2023-12-20T00:15:21;16.63;;;3.75;;
51943;SDS011;37969;53.132;6.370;2023-12-20T00:17:47;19.75;;;3.33;;
51943;SDS011;37969;53.132;6.370;2023-12-20T00:20:17;26.98;;;4.55;;
51943;SDS011;37969;53.132;6.370;2023-12-20T00:22:43;22.85;;;3.13;;
51943;SDS011;37969;53.132;6.370;2023-12-20T00:25:11;24.42;;;3.30;;
51943;SDS011;37969;53.132;6.370;2023-12-20T00:27:39;19.77;;;4.00;;
51943;SDS011;37969;53.132;6.370;2023-12-20T00:30:07;21.45;;;4.18;;
51943;SDS011;37969;53.132;6.370;2023-12-20T00:35:12;23.92;;;3.80;;
51943;SDS011;37969;53.132;6.370;2023-12-20T00:37:38;20.52;;;2.97;;
51943;SDS011;37969;53.132;6.370;2023-12-20T00:40:08;26.98;;;3.78;;
51943;SDS011;37969;53.132;6.370;2023-12-20T00:42:35;31.50;;;4.18;;
51943;SDS011;37969;53.132;6.370;2023-12-20T00:45:03;20.67;;;3.28;;
51943;SDS011;37969;53.132;6.370;2023-12-20T00:47:30;22.95;;;2.67;;
51943;SDS011;37969;53.132;6.370;2023-12-20T00:49:57;21.70;;;4.15;;
51943;SDS011;37969;53.132;6.370;2023-12-20T00:52:24;23.88;;;4.05;;
51943;SDS011;37969;53.132;6.370;2023-12-20T00:54:52;19.67;;;2.67;;
51943;SDS011;37969;53.132;6.370;2023-12-20T00:57:19;42.15;;;3.53;;
51943;SDS011;37969;53.132;6.370;2023-12-20T00:59:46;27.48;;;3.40;;
51943;SDS011;37969;53.132;6.370;2023-12-20T01:02:13;25.83;;;3.60;;
51943;SDS011;37969;53.132;6.370;2023-12-20T01:04:39;32.50;;;4.07;;
51943;SDS011;37969;53.132;6.370;2023-12-20T01:07:06;32.08;;;3.95;;
51943;SDS011;37969;53.132;6.370;2023-12-20T01:09:32;22.42;;;3.72;;
51943;SDS011;37969;53.132;6.370;2023-12-20T01:11:59;26.15;;;3.83;;
51943;SDS011;37969;53.132;6.370;2023-12-20T01:14:28;23.40;;;3.60;;
51943;SDS011;37969;53.132;6.370;2023-12-20T01:16:54;31.13;;;3.38;;
51943;SDS011;37969;53.132;6.370;2023-12-20T01:19:22;27.83;;;4.00;;
51943;SDS011;37969;53.132;6.370;2023-12-20T01:21:49;27.02;;;4.90;;
51943;SDS011;37969;53.132;6.370;2023-12-20T01:24:16;33.00;;;5.07;;
51943;SDS011;37969;53.132;6.370;2023-12-20T01:26:42;30.27;;;3.92;;
51943;SDS011;37969;53.132;6.370;2023-12-20T01:29:09;25.95;;;3.55;;
51943;SDS011;37969;53.132;6.370;2023-12-20T01:31:38;32.15;;;6.43;;
51943;SDS011;37969;53.132;6.370;2023-12-20T01:34:04;26.95;;;4.60;;
51943;SDS011;37969;53.132;6.370;2023-12-20T01:36:31;24.77;;;3.45;;
51943;SDS011;37969;53.132;6.370;2023-12-20T01:39:01;12.33;;;2.60;;
51943;SDS011;37969;53.132;6.370;2023-12-20T01:41:27;12.07;;;2.40;;
51943;SDS011;37969;53.132;6.370;2023-12-20T01:43:53;16.65;;;3.15;;
51943;SDS011;37969;53.132;6.370;2023-12-20T01:46:22;21.48;;;3.22;;
51943;SDS011;37969;53.132;6.370;2023-12-20T01:48:49;21.35;;;3.58;;
51943;SDS011;37969;53.132;6.370;2023-12-20T01:51:16;30.77;;;5.55;;
51943;SDS011;37969;53.132;6.370;2023-12-20T01:53:43;37.20;;;4.60;;
51943;SDS011;37969;53.132;6.370;2023-12-20T01:56:10;40.33;;;5.78;;
51943;SDS011;37969;53.132;6.370;2023-12-20T01:58:39;36.35;;;5.60;;
51943;SDS011;37969;53.132;6.370;2023-12-20T02:01:07;42.38;;;5.90;;
51943;SDS011;37969;53.132;6.370;2023-12-20T02:03:34;34.47;;;5.22;;
51943;SDS011;37969;53.132;6.370;2023-12-20T02:06:03;40.78;;;6.63;;
51943;SDS011;37969;53.132;6.370;2023-12-20T02:08:30;38.72;;;4.93;;
51943;SDS011;37969;53.132;6.370;2023-12-20T02:10:57;42.22;;;6.03;;
51943;SDS011;37969;53.132;6.370;2023-12-20T02:13:27;29.75;;;5.32;;
51943;SDS011;37969;53.132;6.370;2023-12-20T02:15:54;34.33;;;5.57;;
51943;SDS011;37969;53.132;6.370;2023-12-20T02:18:20;30.15;;;6.15;;
51943;SDS011;37969;53.132;6.370;2023-12-20T02:20:48;37.42;;;5.90;;
51943;SDS011;37969;53.132;6.370;2023-12-20T02:23:16;43.22;;;6.32;;
51943;SDS011;37969;53.132;6.370;2023-12-20T02:25:42;40.25;;;6.20;;
51943;SDS011;37969;53.132;6.370;2023-12-20T02:28:08;36.20;;;5.28;;
51943;SDS011;37969;53.132;6.370;2023-12-20T02:30:36;48.13;;;6.20;;
51943;SDS011;37969;53.132;6.370;2023-12-20T02:33:04;44.97;;;5.35;;
51943;SDS011;37969;53.132;6.370;2023-12-20T02:35:34;37.50;;;5.10;;
51943;SDS011;37969;53.132;6.370;2023-12-20T02:38:03;38.45;;;6.82;;
51943;SDS011;37969;53.132;6.370;2023-12-20T02:40:30;42.85;;;5.95;;
51943;SDS011;37969;53.132;6.370;2023-12-20T02:42:57;46.05;;;5.75;;
51943;SDS011;37969;53.132;6.370;2023-12-20T02:45:25;60.85;;;6.65;;
51943;SDS011;37969;53.132;6.370;2023-12-20T02:47:55;43.25;;;5.35;;
51943;SDS011;37969;53.132;6.370;2023-12-20T02:50:22;44.35;;;6.03;;
51943;SDS011;37969;53.132;6.370;2023-12-20T02:52:50;35.80;;;7.25;;
51943;SDS011;37969;53.132;6.370;2023-12-20T02:55:18;42.10;;;5.82;;
51943;SDS011;37969;53.132;6.370;2023-12-20T02:57:45;37.67;;;6.65;;
51943;SDS011;37969;53.132;6.370;2023-12-20T03:00:11;51.38;;;6.70;;
51943;SDS011;37969;53.132;6.370;2023-12-20T03:02:43;55.70;;;7.50;;
51943;SDS011;37969;53.132;6.370;2023-12-20T03:05:09;46.42;;;6.55;;
51943;SDS011;37969;53.132;6.370;2023-12-20T03:07:37;28.38;;;5.25;;
51943;SDS011;37969;53.132;6.370;2023-12-20T03:10:04;38.25;;;6.60;;
51943;SDS011;37969;53.132;6.370;2023-12-20T03:12:32;36.55;;;4.90;;
51943;SDS011;37969;53.132;6.370;2023-12-20T03:14:59;55.22;;;6.20;;
51943;SDS011;37969;53.132;6.370;2023-12-20T03:17:26;46.70;;;6.07;;
51943;SDS011;37969;53.132;6.370;2023-12-20T03:19:52;45.97;;;6.05;;
51943;SDS011;37969;53.132;6.370;2023-12-20T03:22:19;41.85;;;6.55;;
51943;SDS011;37969;53.132;6.370;2023-12-20T03:24:45;39.63;;;6.90;;
51943;SDS011;37969;53.132;6.370;2023-12-20T03:27:12;35.40;;;5.22;;
51943;SDS011;37969;53.132;6.370;2023-12-20T03:29:40;45.67;;;6.70;;
51943;SDS011;37969;53.132;6.370;2023-12-20T03:32:07;44.55;;;5.57;;
51943;SDS011;37969;53.132;6.370;2023-12-20T03:34:35;43.35;;;7.25;;
51943;SDS011;37969;53.132;6.370;2023-12-20T03:37:03;37.60;;;6.50;;
51943;SDS011;37969;53.132;6.370;2023-12-20T03:39:30;43.92;;;6.18;;
51943;SDS011;37969;53.132;6.370;2023-12-20T03:41:57;46.85;;;7.18;;
51943;SDS011;37969;53.132;6.370;2023-12-20T03:44:23;50.38;;;6.82;;
51943;SDS011;37969;53.132;6.370;2023-12-20T03:46:51;48.53;;;7.13;;
51943;SDS011;37969;53.132;6.370;2023-12-20T03:49:19;36.47;;;6.30;;
51943;SDS011;37969;53.132;6.370;2023-12-20T03:51:46;44.83;;;6.43;;
51943;SDS011;37969;53.132;6.370;2023-12-20T03:54:13;35.00;;;5.50;;
51943;SDS011;37969;53.132;6.370;2023-12-20T03:56:39;44.20;;;6.65;;
51943;SDS011;37969;53.132;6.370;2023-12-20T03:59:05;38.00;;;5.28;;
51943;SDS011;37969;53.132;6.370;2023-12-20T04:01:31;44.25;;;7.60;;
51943;SDS011;37969;53.132;6.370;2023-12-20T04:03:59;46.88;;;6.82;;
51943;SDS011;37969;53.132;6.370;2023-12-20T04:06:26;39.03;;;7.07;;
51943;SDS011;37969;53.132;6.370;2023-12-20T04:08:53;39.05;;;6.25;;
51943;SDS011;37969;53.132;6.370;2023-12-20T04:11:21;32.00;;;5.20;;
51943;SDS011;37969;53.132;6.370;2023-12-20T04:13:48;43.22;;;6.68;;
51943;SDS011;37969;53.132;6.370;2023-12-20T04:16:15;40.28;;;7.10;;
51943;SDS011;37969;53.132;6.370;2023-12-20T04:18:44;26.45;;;4.72;;
51943;SDS011;37969;53.132;6.370;2023-12-20T04:21:10;40.28;;;6.40;;
51943;SDS011;37969;53.132;6.370;2023-12-20T04:23:37;39.92;;;5.50;;
51943;SDS011;37969;53.132;6.370;2023-12-20T04:26:03;40.10;;;5.60;;
51943;SDS011;37969;53.132;6.370;2023-12-20T04:28:31;47.00;;;6.30;;
51943;SDS011;37969;53.132;6.370;2023-12-20T04:30:58;30.65;;;5.18;;
51943;SDS011;37969;53.132;6.370;2023-12-20T04:33:24;31.70;;;4.97;;
51943;SDS011;37969;53.132;6.370;2023-12-20T04:35:50;33.03;;;5.18;;
51943;SDS011;37969;53.132;6.370;2023-12-20T04:38:17;37.15;;;5.25;;
51943;SDS011;37969;53.132;6.370;2023-12-20T04:40:43;52.83;;;6.25;;
51943;SDS011;37969;53.132;6.370;2023-12-20T04:43:09;54.53;;;7.78;;
51943;SDS011;37969;53.132;6.370;2023-12-20T04:45:36;36.15;;;5.78;;
51943;SDS011;37969;53.132;6.370;2023-12-20T04:48:02;49.33;;;6.63;;
51943;SDS011;37969;53.132;6.370;2023-12-20T04:50:31;33.08;;;5.55;;
51943;SDS011;37969;53.132;6.370;2023-12-20T04:52:58;30.50;;;5.63;;
51943;SDS011;37969;53.132;6.370;2023-12-20T04:55:29;39.05;;;5.95;;
51943;SDS011;37969;53.132;6.370;2023-12-20T04:57:57;45.22;;;6.55;;
51943;SDS011;37969;53.132;6.370;2023-12-20T05:00:23;40.92;;;7.13;;
51943;SDS011;37969;53.132;6.370;2023-12-20T05:02:52;33.97;;;5.93;;
51943;SDS011;37969;53.132;6.370;2023-12-20T05:05:18;46.03;;;7.22;;
51943;SDS011;37969;53.132;6.370;2023-12-20T05:07:47;46.67;;;7.10;;
51943;SDS011;37969;53.132;6.370;2023-12-20T05:10:13;42.75;;;5.93;;
51943;SDS011;37969;53.132;6.370;2023-12-20T05:12:43;44.30;;;5.95;;
51943;SDS011;37969;53.132;6.370;2023-12-20T05:15:10;40.72;;;6.65;;
51943;SDS011;37969;53.132;6.370;2023-12-20T05:17:39;47.17;;;7.10;;
51943;SDS011;37969;53.132;6.370;2023-12-20T05:20:06;46.85;;;6.80;;
51943;SDS011;37969;53.132;6.370;2023-12-20T05:22:33;36.25;;;7.55;;
51943;SDS011;37969;53.132;6.370;2023-12-20T05:24:59;46.53;;;7.57;;
51943;SDS011;37969;53.132;6.370;2023-12-20T05:27:26;39.15;;;7.10;;
51943;SDS011;37969;53.132;6.370;2023-12-20T05:29:52;44.47;;;8.15;;
51943;SDS011;37969;53.132;6.370;2023-12-20T05:32:22;37.47;;;5.47;;
51943;SDS011;37969;53.132;6.370;2023-12-20T05:34:49;43.92;;;7.13;;
51943;SDS011;37969;53.132;6.370;2023-12-20T05:37:15;44.13;;;7.43;;
51943;SDS011;37969;53.132;6.370;2023-12-20T05:39:44;37.05;;;6.15;;
51943;SDS011;37969;53.132;6.370;2023-12-20T05:42:10;40.15;;;7.65;;
51943;SDS011;37969;53.132;6.370;2023-12-20T05:44:37;40.40;;;7.85;;
51943;SDS011;37969;53.132;6.370;2023-12-20T05:47:03;36.05;;;5.32;;
51943;SDS011;37969;53.132;6.370;2023-12-20T05:49:29;39.88;;;7.90;;
51943;SDS011;37969;53.132;6.370;2023-12-20T05:51:57;41.05;;;6.95;;
51943;SDS011;37969;53.132;6.370;2023-12-20T05:54:24;45.08;;;7.55;;
51943;SDS011;37969;53.132;6.370;2023-12-20T05:56:51;40.25;;;6.95;;
51943;SDS011;37969;53.132;6.370;2023-12-20T05:59:18;46.30;;;7.60;;
51943;SDS011;37969;53.132;6.370;2023-12-20T06:01:47;47.53;;;9.17;;
51943;SDS011;37969;53.132;6.370;2023-12-20T06:04:14;40.60;;;7.38;;
51943;SDS011;37969;53.132;6.370;2023-12-20T06:06:41;36.60;;;6.63;;
51943;SDS011;37969;53.132;6.370;2023-12-20T06:09:09;39.58;;;6.75;;
51943;SDS011;37969;53.132;6.370;2023-12-20T06:11:37;38.08;;;6.35;;
51943;SDS011;37969;53.132;6.370;2023-12-20T06:14:04;41.75;;;6.03;;
51943;SDS011;37969;53.132;6.370;2023-12-20T06:16:31;46.00;;;6.93;;
51943;SDS011;37969;53.132;6.370;2023-12-20T06:18:57;37.55;;;6.43;;
51943;SDS011;37969;53.132;6.370;2023-12-20T06:21:27;31.95;;;6.38;;
51943;SDS011;37969;53.132;6.370;2023-12-20T06:23:58;35.80;;;5.75;;
51943;SDS011;37969;53.132;6.370;2023-12-20T06:26:25;47.53;;;6.53;;
51943;SDS011;37969;53.132;6.370;2023-12-20T06:28:51;34.08;;;5.72;;
51943;SDS011;37969;53.132;6.370;2023-12-20T06:31:19;45.80;;;8.45;;
51943;SDS011;37969;53.132;6.370;2023-12-20T06:33:45;48.28;;;7.63;;
51943;SDS011;37969;53.132;6.370;2023-12-20T06:36:22;34.83;;;5.82;;
51943;SDS011;37969;53.132;6.370;2023-12-20T06:38:50;37.88;;;6.07;;
51943;SDS011;37969;53.132;6.370;2023-12-20T06:41:17;38.53;;;6.45;;
51943;SDS011;37969;53.132;6.370;2023-12-20T06:43:43;43.67;;;7.07;;
51943;SDS011;37969;53.132;6.370;2023-12-20T06:46:09;44.15;;;9.68;;
51943;SDS011;37969;53.132;6.370;2023-12-20T06:48:38;39.10;;;7.47;;
51943;SDS011;37969;53.132;6.370;2023-12-20T06:51:06;32.78;;;6.47;;
51943;SDS011;37969;53.132;6.370;2023-12-20T06:53:33;40.55;;;5.93;;
51943;SDS011;37969;53.132;6.370;2023-12-20T06:55:59;41.22;;;6.05;;
51943;SDS011;37969;53.132;6.370;2023-12-20T06:58:28;34.33;;;5.97;;
51943;SDS011;37969;53.132;6.370;2023-12-20T07:00:55;45.28;;;7.20;;
51943;SDS011;37969;53.132;6.370;2023-12-20T07:03:22;38.45;;;6.38;;
51943;SDS011;37969;53.132;6.370;2023-12-20T07:05:51;35.28;;;5.57;;
51943;SDS011;37969;53.132;6.370;2023-12-20T07:08:19;41.53;;;6.80;;
51943;SDS011;37969;53.132;6.370;2023-12-20T07:10:48;48.70;;;6.50;;
51943;SDS011;37969;53.132;6.370;2023-12-20T07:13:17;34.43;;;6.30;;
51943;SDS011;37969;53.132;6.370;2023-12-20T07:15:45;47.63;;;7.22;;
51943;SDS011;37969;53.132;6.370;2023-12-20T07:18:11;44.90;;;6.30;;
51943;SDS011;37969;53.132;6.370;2023-12-20T07:20:37;39.60;;;7.35;;
51943;SDS011;37969;53.132;6.370;2023-12-20T07:23:04;46.55;;;7.32;;
51943;SDS011;37969;53.132;6.370;2023-12-20T07:25:33;32.05;;;6.25;;
51943;SDS011;37969;53.132;6.370;2023-12-20T07:28:02;43.90;;;9.80;;
51943;SDS011;37969;53.132;6.370;2023-12-20T07:30:28;38.78;;;6.43;;
51943;SDS011;37969;53.132;6.370;2023-12-20T07:32:55;31.38;;;5.70;;
51943;SDS011;37969;53.132;6.370;2023-12-20T07:35:23;35.90;;;8.40;;
51943;SDS011;37969;53.132;6.370;2023-12-20T07:37:53;49.67;;;7.88;;
51943;SDS011;37969;53.132;6.370;2023-12-20T07:40:19;33.55;;;7.97;;
51943;SDS011;37969;53.132;6.370;2023-12-20T07:42:45;39.45;;;7.10;;
51943;SDS011;37969;53.132;6.370;2023-12-20T07:45:14;36.97;;;7.32;;
51943;SDS011;37969;53.132;6.370;2023-12-20T07:47:43;37.43;;;5.80;;
51943;SDS011;37969;53.132;6.370;2023-12-20T07:50:11;38.85;;;6.03;;
51943;SDS011;37969;53.132;6.370;2023-12-20T07:52:40;46.40;;;9.13;;
51943;SDS011;37969;53.132;6.370;2023-12-20T07:55:07;32.63;;;6.82;;
51943;SDS011;37969;53.132;6.370;2023-12-20T07:57:34;45.90;;;7.70;;
51943;SDS011;37969;53.132;6.370;2023-12-20T08:00:02;45.97;;;7.50;;
51943;SDS011;37969;53.132;6.370;2023-12-20T08:02:30;41.22;;;7.88;;
51943;SDS011;37969;53.132;6.370;2023-12-20T08:04:57;27.45;;;7.32;;
51943;SDS011;37969;53.132;6.370;2023-12-20T08:07:24;28.27;;;7.57;;
51943;SDS011;37969;53.132;6.370;2023-12-20T08:09:53;28.85;;;6.35;;
51943;SDS011;37969;53.132;6.370;2023-12-20T08:12:22;43.47;;;8.45;;
51943;SDS011;37969;53.132;6.370;2023-12-20T08:14:52;27.45;;;4.93;;
51943;SDS011;37969;53.132;6.370;2023-12-20T08:17:20;38.97;;;7.88;;
51943;SDS011;37969;53.132;6.370;2023-12-20T08:19:48;38.85;;;7.80;;
51943;SDS011;37969;53.132;6.370;2023-12-20T08:22:17;30.10;;;6.82;;
51943;SDS011;37969;53.132;6.370;2023-12-20T08:24:45;28.73;;;4.65;;
51943;SDS011;37969;53.132;6.370;2023-12-20T08:27:13;35.72;;;5.63;;
51943;SDS011;37969;53.132;6.370;2023-12-20T08:29:41;38.17;;;6.22;;
51943;SDS011;37969;53.132;6.370;2023-12-20T08:34:41;23.90;;;4.03;;
51943;SDS011;37969;53.132;6.370;2023-12-20T08:37:10;24.88;;;3.97;;
51943;SDS011;37969;53.132;6.370;2023-12-20T08:39:37;20.60;;;3.75;;
51943;SDS011;37969;53.132;6.370;2023-12-20T08:42:04;20.30;;;3.53;;
51943;SDS011;37969;53.132;6.370;2023-12-20T08:44:31;21.00;;;3.78;;
51943;SDS011;37969;53.132;6.370;2023-12-20T08:46:58;28.75;;;3.83;;
51943;SDS011;37969;53.132;6.370;2023-12-20T08:49:25;32.25;;;4.63;;
51943;SDS011;37969;53.132;6.370;2023-12-20T08:51:53;33.13;;;5.65;;
51943;SDS011;37969;53.132;6.370;2023-12-20T08:54:20;31.60;;;4.80;;
51943;SDS011;37969;53.132;6.370;2023-12-20T08:56:47;28.60;;;4.82;;
51943;SDS011;37969;53.132;6.370;2023-12-20T08:59:15;27.67;;;4.63;;
51943;SDS011;37969;53.132;6.370;2023-12-20T09:01:43;32.75;;;6.38;;
51943;SDS011;37969;53.132;6.370;2023-12-20T09:04:19;34.97;;;6.22;;
51943;SDS011;37969;53.132;6.370;2023-12-20T09:06:48;34.00;;;5.88;;
51943;SDS011;37969;53.132;6.370;2023-12-20T09:09:15;16.60;;;2.75;;
51943;SDS011;37969;53.132;6.370;2023-12-20T09:11:41;16.10;;;2.15;;
51943;SDS011;37969;53.132;6.370;2023-12-20T09:14:08;16.85;;;2.00;;
51943;SDS011;37969;53.132;6.370;2023-12-20T09:16:37;15.05;;;2.28;;
51943;SDS011;37969;53.132;6.370;2023-12-20T09:19:06;15.05;;;2.05;;
51943;SDS011;37969;53.132;6.370;2023-12-20T09:21:33;11.20;;;1.45;;
51943;SDS011;37969;53.132;6.370;2023-12-20T09:24:01;12.25;;;2.10;;
51943;SDS011;37969;53.132;6.370;2023-12-20T09:26:28;12.00;;;1.98;;
51943;SDS011;37969;53.132;6.370;2023-12-20T09:28:54;12.65;;;1.60;;
51943;SDS011;37969;53.132;6.370;2023-12-20T09:31:21;12.98;;;1.92;;
51943;SDS011;37969;53.132;6.370;2023-12-20T09:33:48;8.05;;;1.42;;
51943;SDS011;37969;53.132;6.370;2023-12-20T09:36:14;9.77;;;1.38;;
51943;SDS011;37969;53.132;6.370;2023-12-20T09:38:41;6.55;;;1.17;;
51943;SDS011;37969;53.132;6.370;2023-12-20T09:41:07;7.22;;;1.02;;
51943;SDS011;37969;53.132;6.370;2023-12-20T09:43:35;8.13;;;1.45;;
51943;SDS011;37969;53.132;6.370;2023-12-20T09:46:05;10.55;;;1.42;;
51943;SDS011;37969;53.132;6.370;2023-12-20T09:48:33;8.15;;;1.70;;
51943;SDS011;37969;53.132;6.370;2023-12-20T09:50:59;13.60;;;1.90;;
51943;SDS011;37969;53.132;6.370;2023-12-20T09:53:26;13.68;;;1.77;;
51943;SDS011;37969;53.132;6.370;2023-12-20T09:55:58;17.90;;;2.33;;
51943;SDS011;37969;53.132;6.370;2023-12-20T09:58:25;17.48;;;2.00;;
51943;SDS011;37969;53.132;6.370;2023-12-20T10:00:54;21.85;;;2.67;;
51943;SDS011;37969;53.132;6.370;2023-12-20T10:03:25;21.63;;;2.28;;
51943;SDS011;37969;53.132;6.370;2023-12-20T10:05:54;13.57;;;1.85;;
51943;SDS011;37969;53.132;6.370;2023-12-20T10:08:22;17.33;;;2.30;;
51943;SDS011;37969;53.132;6.370;2023-12-20T10:10:49;20.88;;;2.70;;
51943;SDS011;37969;53.132;6.370;2023-12-20T10:13:16;29.38;;;3.40;;
51943;SDS011;37969;53.132;6.370;2023-12-20T10:15:43;16.83;;;2.50;;
51943;SDS011;37969;53.132;6.370;2023-12-20T10:18:12;21.40;;;3.10;;
51943;SDS011;37969;53.132;6.370;2023-12-20T10:20:39;19.17;;;2.88;;
51943;SDS011;37969;53.132;6.370;2023-12-20T10:23:08;19.70;;;2.70;;
51943;SDS011;37969;53.132;6.370;2023-12-20T10:25:35;24.23;;;3.17;;
51943;SDS011;37969;53.132;6.370;2023-12-20T10:28:12;17.63;;;2.55;;
51943;SDS011;37969;53.132;6.370;2023-12-20T10:30:40;14.32;;;3.45;;
51943;SDS011;37969;53.132;6.370;2023-12-20T10:33:07;22.67;;;3.95;;
51943;SDS011;37969;53.132;6.370;2023-12-20T10:35:34;18.67;;;5.78;;
51943;SDS011;37969;53.132;6.370;2023-12-20T10:38:01;17.48;;;3.90;;
51943;SDS011;37969;53.132;6.370;2023-12-20T10:40:29;27.17;;;5.13;;
51943;SDS011;37969;53.132;6.370;2023-12-20T10:42:57;16.25;;;4.22;;
51943;SDS011;37969;53.132;6.370;2023-12-20T10:45:24;15.48;;;2.75;;
51943;SDS011;37969;53.132;6.370;2023-12-20T10:47:50;23.38;;;4.22;;
51943;SDS011;37969;53.132;6.370;2023-12-20T10:50:18;26.02;;;7.55;;
51943;SDS011;37969;53.132;6.370;2023-12-20T10:52:47;27.83;;;7.47;;
51943;SDS011;37969;53.132;6.370;2023-12-20T10:55:21;17.65;;;2.42;;
51943;SDS011;37969;53.132;6.370;2023-12-20T11:00:17;16.08;;;2.88;;
51943;SDS011;37969;53.132;6.370;2023-12-20T11:02:44;19.15;;;3.30;;
51943;SDS011;37969;53.132;6.370;2023-12-20T11:05:19;16.50;;;3.65;;
51943;SDS011;37969;53.132;6.370;2023-12-20T11:07:50;21.23;;;2.95;;
51943;SDS011;37969;53.132;6.370;2023-12-20T11:10:24;20.95;;;3.90;;
51943;SDS011;37969;53.132;6.370;2023-12-20T11:12:53;28.58;;;5.18;;
51943;SDS011;37969;53.132;6.370;2023-12-20T11:15:20;20.83;;;3.95;;
51943;SDS011;37969;53.132;6.370;2023-12-20T11:17:54;20.13;;;3.15;;
51943;SDS011;37969;53.132;6.370;2023-12-20T11:20:22;15.65;;;2.95;;
51943;SDS011;37969;53.132;6.370;2023-12-20T11:22:52;24.10;;;4.00;;
51943;SDS011;37969;53.132;6.370;2023-12-20T11:25:19;22.52;;;3.80;;
51943;SDS011;37969;53.132;6.370;2023-12-20T11:28:06;17.48;;;3.25;;
51943;SDS011;37969;53.132;6.370;2023-12-20T11:30:42;15.93;;;3.43;;
51943;SDS011;37969;53.132;6.370;2023-12-20T11:33:08;14.50;;;2.97;;
51943;SDS011;37969;53.132;6.370;2023-12-20T11:35:34;16.17;;;2.53;;
51943;SDS011;37969;53.132;6.370;2023-12-20T11:38:04;15.32;;;2.72;;
51943;SDS011;37969;53.132;6.370;2023-12-20T11:40:33;14.98;;;3.20;;
51943;SDS011;37969;53.132;6.370;2023-12-20T11:43:01;15.35;;;2.42;;
51943;SDS011;37969;53.132;6.370;2023-12-20T11:47:57;23.40;;;3.30;;
51943;SDS011;37969;53.132;6.370;2023-12-20T11:50:24;19.20;;;2.72;;
51943;SDS011;37969;53.132;6.370;2023-12-20T11:52:56;20.48;;;3.25;;
51943;SDS011;37969;53.132;6.370;2023-12-20T11:55:23;13.25;;;2.42;;
51943;SDS011;37969;53.132;6.370;2023-12-20T11:57:51;23.77;;;3.72;;
51943;SDS011;37969;53.132;6.370;2023-12-20T12:00:18;20.05;;;3.40;;
51943;SDS011;37969;53.132;6.370;2023-12-20T12:02:57;16.75;;;3.33;;
51943;SDS011;37969;53.132;6.370;2023-12-20T12:05:24;22.08;;;2.42;;
51943;SDS011;37969;53.132;6.370;2023-12-20T12:07:51;15.40;;;2.72;;
51943;SDS011;37969;53.132;6.370;2023-12-20T12:10:18;20.00;;;3.67;;
51943;SDS011;37969;53.132;6.370;2023-12-20T12:12:45;20.15;;;3.25;;
51943;SDS011;37969;53.132;6.370;2023-12-20T12:15:13;19.02;;;3.38;;
51943;SDS011;37969;53.132;6.370;2023-12-20T12:17:41;13.63;;;2.88;;
51943;SDS011;37969;53.132;6.370;2023-12-20T12:20:09;19.90;;;3.90;;
51943;SDS011;37969;53.132;6.370;2023-12-20T12:22:37;21.33;;;3.85;;
51943;SDS011;37969;53.132;6.370;2023-12-20T12:25:11;25.02;;;3.53;;
51943;SDS011;37969;53.132;6.370;2023-12-20T12:27:41;26.42;;;3.45;;
51943;SDS011;37969;53.132;6.370;2023-12-20T12:30:08;22.75;;;3.53;;
51943;SDS011;37969;53.132;6.370;2023-12-20T12:32:38;23.27;;;3.83;;
51943;SDS011;37969;53.132;6.370;2023-12-20T12:35:05;23.27;;;3.22;;
51943;SDS011;37969;53.132;6.370;2023-12-20T12:37:33;21.80;;;3.60;;
51943;SDS011;37969;53.132;6.370;2023-12-20T12:40:00;25.38;;;3.25;;
51943;SDS011;37969;53.132;6.370;2023-12-20T12:42:28;19.05;;;3.80;;
51943;SDS011;37969;53.132;6.370;2023-12-20T12:44:54;24.52;;;4.00;;
51943;SDS011;37969;53.132;6.370;2023-12-20T12:47:22;20.65;;;3.13;;
51943;SDS011;37969;53.132;6.370;2023-12-20T12:49:49;25.45;;;3.47;;
51943;SDS011;37969;53.132;6.370;2023-12-20T12:52:18;25.58;;;3.83;;
51943;SDS011;37969;53.132;6.370;2023-12-20T12:54:45;27.95;;;4.32;;
51943;SDS011;37969;53.132;6.370;2023-12-20T12:57:13;23.52;;;3.22;;
51943;SDS011;37969;53.132;6.370;2023-12-20T12:59:43;23.77;;;4.05;;
51943;SDS011;37969;53.132;6.370;2023-12-20T13:02:11;26.23;;;4.13;;
51943;SDS011;37969;53.132;6.370;2023-12-20T13:04:41;22.80;;;3.58;;
51943;SDS011;37969;53.132;6.370;2023-12-20T13:07:08;21.27;;;3.83;;
51943;SDS011;37969;53.132;6.370;2023-12-20T13:09:37;24.20;;;3.50;;
51943;SDS011;37969;53.132;6.370;2023-12-20T13:12:04;18.05;;;2.97;;
51943;SDS011;37969;53.132;6.370;2023-12-20T13:14:33;15.70;;;2.67;;
51943;SDS011;37969;53.132;6.370;2023-12-20T13:17:02;16.60;;;2.40;;
51943;SDS011;37969;53.132;6.370;2023-12-20T13:19:31;18.90;;;2.47;;
51943;SDS011;37969;53.132;6.370;2023-12-20T13:21:58;15.80;;;1.90;;
51943;SDS011;37969;53.132;6.370;2023-12-20T13:24:26;13.00;;;2.15;;
51943;SDS011;37969;53.132;6.370;2023-12-20T13:26:54;15.68;;;2.42;;
51943;SDS011;37969;53.132;6.370;2023-12-20T13:29:21;14.52;;;1.65;;
51943;SDS011;37969;53.132;6.370;2023-12-20T13:31:54;15.27;;;2.70;;
51943;SDS011;37969;53.132;6.370;2023-12-20T13:34:21;11.70;;;2.05;;
51943;SDS011;37969;53.132;6.370;2023-12-20T13:36:50;15.77;;;2.20;;
51943;SDS011;37969;53.132;6.370;2023-12-20T13:39:17;14.43;;;2.72;;
51943;SDS011;37969;53.132;6.370;2023-12-20T13:41:44;10.30;;;2.28;;
51943;SDS011;37969;53.132;6.370;2023-12-20T13:44:12;15.13;;;2.85;;
51943;SDS011;37969;53.132;6.370;2023-12-20T13:46:40;12.18;;;2.05;;
51943;SDS011;37969;53.132;6.370;2023-12-20T13:49:14;11.25;;;1.67;;
51943;SDS011;37969;53.132;6.370;2023-12-20T13:51:40;17.92;;;2.67;;
51943;SDS011;37969;53.132;6.370;2023-12-20T13:54:08;13.60;;;2.30;;
51943;SDS011;37969;53.132;6.370;2023-12-20T13:56:36;13.27;;;3.33;;
51943;SDS011;37969;53.132;6.370;2023-12-20T13:59:03;11.10;;;1.75;;
51943;SDS011;37969;53.132;6.370;2023-12-20T14:01:30;10.93;;;2.00;;
51943;SDS011;37969;53.132;6.370;2023-12-20T14:03:56;12.48;;;2.28;;
51943;SDS011;37969;53.132;6.370;2023-12-20T14:08:52;12.60;;;1.77;;
51943;SDS011;37969;53.132;6.370;2023-12-20T14:11:19;9.15;;;1.73;;
51943;SDS011;37969;53.132;6.370;2023-12-20T14:13:45;8.32;;;1.80;;
51943;SDS011;37969;53.132;6.370;2023-12-20T14:16:14;9.73;;;1.45;;
51943;SDS011;37969;53.132;6.370;2023-12-20T14:18:41;10.15;;;2.10;;
51943;SDS011;37969;53.132;6.370;2023-12-20T14:21:08;13.18;;;1.90;;
51943;SDS011;37969;53.132;6.370;2023-12-20T14:23:35;14.95;;;1.88;;
51943;SDS011;37969;53.132;6.370;2023-12-20T14:26:03;11.90;;;1.67;;
51943;SDS011;37969;53.132;6.370;2023-12-20T14:28:32;12.85;;;1.67;;
51943;SDS011;37969;53.132;6.370;2023-12-20T14:30:58;10.93;;;2.00;;
51943;SDS011;37969;53.132;6.370;2023-12-20T14:33:25;13.68;;;2.38;;
51943;SDS011;37969;53.132;6.370;2023-12-20T14:35:52;16.38;;;2.88;;
51943;SDS011;37969;53.132;6.370;2023-12-20T14:38:18;15.00;;;2.67;;
51943;SDS011;37969;53.132;6.370;2023-12-20T14:40:44;13.32;;;2.20;;
51943;SDS011;37969;53.132;6.370;2023-12-20T14:43:12;15.02;;;2.50;;
51943;SDS011;37969;53.132;6.370;2023-12-20T14:45:41;15.32;;;1.73;;
51943;SDS011;37969;53.132;6.370;2023-12-20T14:48:07;12.32;;;2.25;;
51943;SDS011;37969;53.132;6.370;2023-12-20T14:50:38;23.48;;;2.72;;